Time;durP1;ratioP1;P1;durP2;ratioP2;P2;SDS_P1;SDS_P2;PMS_P1;PMS_P2;Temp;Humidity;BMP_temperature;BMP_pressure;BME280_temperature;BME280_humidity;BME280_pressure;Samples;Min_cycle;Max_cycle;Signal;HPM_P1;HPM_P2
2022/08/27 00:08:58;;;;;;;7.8;13.5;;;;;;;16.3;100;98090;;;;
2022/08/27 00:18:58;;;;;;;7.8;13.5;;;;;;;16.2;100;98100;;;;
2022/08/27 00:29:58;;;;;;;7.4;14.2;;;;;;;16;100;98110;;;;
2022/08/27 00:39:58;;;;;;;7.4;14.2;;;;;;;15.9;100;98110;;;;
2022/08/27 00:49:58;;;;;;;7.4;14.2;;;;;;;15.9;100;98110;;;;
2022/08/27 01:00:58;;;;;;;7.2;12.5;;;;;;;15.7;100;98100;;;;
2022/08/27 01:11:58;;;;;;;7.2;12.5;;;;;;;15.6;100;98110;;;;
2022/08/27 01:21:58;;;;;;;7.2;12.5;;;;;;;15.4;100;98100;;;;
2022/08/27 01:31:58;;;;;;;6.2;10.6;;;;;;;15.1;100;98100;;;;
2022/08/27 01:41:58;;;;;;;6.2;10.6;;;;;;;15.1;100;98100;;;;
2022/08/27 01:51:58;;;;;;;6.2;10.6;;;;;;;15;100;98090;;;;
2022/08/27 02:02:58;;;;;;;6.2;9.6;;;;;;;14.9;100;98100;;;;
2022/08/27 02:12:59;;;;;;;6.2;9.6;;;;;;;14.9;100;98100;;;;
2022/08/27 02:23:58;;;;;;;6.2;9.6;;;;;;;14.8;100;98100;;;;
2022/08/27 02:34:58;;;;;;;6.2;10.5;;;;;;;14.6;100;98090;;;;
2022/08/27 02:44:58;;;;;;;6.2;10.5;;;;;;;14.5;100;98090;;;;
2022/08/27 02:55:58;;;;;;;7.3;13;;;;;;;14.5;100;98090;;;;
2022/08/27 03:05:58;;;;;;;7.3;13;;;;;;;14.5;100;98080;;;;
2022/08/27 03:18:16;;;;;;;7.3;13;;;;;;;14.4;100;98080;;;;
2022/08/27 03:26:58;;;;;;;6.9;9.9;;;;;;;14.4;100;98070;;;;
2022/08/27 03:36:59;;;;;;;6.9;9.9;;;;;;;14.3;100;98080;;;;
2022/08/27 03:47:58;;;;;;;6.9;9.9;;;;;;;14.1;100;98070;;;;
2022/08/27 03:57:58;;;;;;;6.7;11.5;;;;;;;14.2;100;98080;;;;
2022/08/27 04:08:59;;;;;;;6.7;11.5;;;;;;;14.1;100;98080;;;;
2022/08/27 04:18:58;;;;;;;6.7;11.5;;;;;;;14.4;100;98070;;;;
2022/08/27 04:28:58;;;;;;;6.3;9.5;;;;;;;14.6;100;98080;;;;
2022/08/27 04:38:58;;;;;;;6.3;9.5;;;;;;;14.8;100;98080;;;;
2022/08/27 04:48:58;;;;;;;6.3;9.5;;;;;;;15;100;98080;;;;
2022/08/27 04:58:58;;;;;;;6.8;10.7;;;;;;;15.4;100;98090;;;;
2022/08/27 05:09:58;;;;;;;6.8;10.7;;;;;;;15.9;100;98090;;;;
2022/08/27 05:19:58;;;;;;;6.8;10.7;;;;;;;16.3;100;98100;;;;
2022/08/27 05:29:58;;;;;;;8.1;13.5;;;;;;;16.9;100;98100;;;;
2022/08/27 05:40:58;;;;;;;8.1;13.5;;;;;;;17.4;100;98100;;;;
2022/08/27 05:50:58;;;;;;;8.1;13.5;;;;;;;18;100;98090;;;;
2022/08/27 06:01:58;;;;;;;8;11.8;;;;;;;18.5;100;98090;;;;
2022/08/27 06:11:58;;;;;;;8;11.8;;;;;;;18.8;100;98110;;;;
2022/08/27 06:22:58;;;;;;;8;11.8;;;;;;;19.4;100;98130;;;;
2022/08/27 06:32:58;;;;;;;8.3;13.4;;;;;;;19.5;100;98120;;;;
2022/08/27 06:43:58;;;;;;;8.3;13.4;;;;;;;20.1;100;98130;;;;
2022/08/27 06:53:58;;;;;;;9;13.6;;;;;;;20.5;100;98130;;;;
2022/08/27 07:03:58;;;;;;;9;13.6;;;;;;;21;100;98140;;;;
2022/08/27 07:14:58;;;;;;;9;13.6;;;;;;;21.3;100;98140;;;;
2022/08/27 07:25:58;;;;;;;7.5;11.2;;;;;;;21.6;100;98150;;;;
2022/08/27 07:36:58;;;;;;;7.5;11.2;;;;;;;22.1;100;98160;;;;
2022/08/27 07:47:58;;;;;;;7.5;11.2;;;;;;;22.4;100;98170;;;;
2022/08/27 07:58:58;;;;;;;8.8;14;;;;;;;23;100;98180;;;;
2022/08/27 08:08:58;;;;;;;8.8;14;;;;;;;23.1;100;98200;;;;
2022/08/27 08:19:58;;;;;;;8.8;14;;;;;;;23.4;100;98200;;;;
2022/08/27 08:29:58;;;;;;;7.5;13.5;;;;;;;23.6;100;98200;;;;
2022/08/27 08:40:58;;;;;;;7.5;13.5;;;;;;;24.1;100;98200;;;;
2022/08/27 08:50:58;;;;;;;7.5;13.5;;;;;;;24.8;100;98210;;;;
2022/08/27 09:01:58;;;;;;;5.5;8.5;;;;;;;25.3;100;98210;;;;
2022/08/27 09:12:58;;;;;;;5.5;8.5;;;;;;;25.3;100;98210;;;;
2022/08/27 09:22:58;;;;;;;5.5;8.5;;;;;;;25.8;100;98210;;;;
2022/08/27 09:33:58;;;;;;;5.7;10.2;;;;;;;26;99.4;98210;;;;
2022/08/27 09:43:58;;;;;;;5.7;10.2;;;;;;;26.2;100;98210;;;;
2022/08/27 09:53:58;;;;;;;5.7;10.2;;;;;;;26.4;99.6;98190;;;;
2022/08/27 10:04:58;;;;;;;5.3;9.2;;;;;;;27;99.8;98200;;;;
2022/08/27 10:15:58;;;;;;;5.3;9.2;;;;;;;27.2;98.5;98200;;;;
2022/08/27 10:25:59;;;;;;;5.7;12.3;;;;;;;27.3;96.8;98210;;;;
2022/08/27 10:36:58;;;;;;;5.7;12.3;;;;;;;27.7;92.9;98200;;;;
2022/08/27 10:47:58;;;;;;;5.7;12.3;;;;;;;27.8;94;98190;;;;
2022/08/27 10:58:58;;;;;;;5.1;9.3;;;;;;;27.9;91.2;98190;;;;
2022/08/27 11:09:58;;;;;;;5.1;9.3;;;;;;;28.1;100;98200;;;;
2022/08/27 11:20:58;;;;;;;5.1;9.3;;;;;;;28.3;100;98190;;;;
2022/08/27 11:31:58;;;;;;;6.1;14.4;;;;;;;28.2;100;98190;;;;
2022/08/27 11:41:58;;;;;;;6.1;14.4;;;;;;;28.2;100;98180;;;;
2022/08/27 11:51:58;;;;;;;6.1;14.4;;;;;;;28.6;96.6;98170;;;;
2022/08/27 12:02:58;;;;;;;5.3;9.4;;;;;;;28.8;90.4;98170;;;;
2022/08/27 12:12:58;;;;;;;5.3;9.4;;;;;;;29.1;88.1;98160;;;;
2022/08/27 12:23:58;;;;;;;5.3;9.4;;;;;;;29;90.9;98140;;;;
2022/08/27 12:34:58;;;;;;;4.6;9.6;;;;;;;29.5;90.3;98140;;;;
2022/08/27 12:44:58;;;;;;;4.6;9.6;;;;;;;29.8;88.2;98130;;;;
2022/08/27 12:54:58;;;;;;;5.7;10.4;;;;;;;29.7;95.9;98130;;;;
2022/08/27 13:04:59;;;;;;;5.7;10.4;;;;;;;29.8;90.5;98110;;;;
2022/08/27 13:15:58;;;;;;;5.7;10.4;;;;;;;29.9;93;98120;;;;
2022/08/27 13:25:59;;;;;;;5.4;13;;;;;;;30;91;98120;;;;
2022/08/27 13:36:58;;;;;;;5.4;13;;;;;;;30;92.3;98110;;;;
2022/08/27 13:47:58;;;;;;;5.4;13;;;;;;;30.1;91.9;98090;;;;
2022/08/27 13:57:58;;;;;;;5.4;10.4;;;;;;;29.5;92;98090;;;;
2022/08/27 14:07:58;;;;;;;5.4;10.4;;;;;;;29;93;98090;;;;
2022/08/27 14:18:59;;;;;;;5.4;10.4;;;;;;;29.5;94.3;98090;;;;
2022/08/27 14:28:58;;;;;;;5.1;11.1;;;;;;;30;91.2;98090;;;;
2022/08/27 14:39:58;;;;;;;5.1;11.1;;;;;;;31;84.6;98110;;;;
2022/08/27 14:49:58;;;;;;;5.1;11.1;;;;;;;31.5;75.1;98110;;;;
2022/08/27 15:00:58;;;;;;;5.6;11.1;;;;;;;31.1;71.6;98120;;;;
2022/08/27 15:10:58;;;;;;;5.6;11.1;;;;;;;30;79.7;98120;;;;
2022/08/27 15:21:58;;;;;;;5.6;11.1;;;;;;;28.9;93.6;98120;;;;
2022/08/27 15:31:58;;;;;;;6.1;12.3;;;;;;;28.3;99.9;98120;;;;
2022/08/27 15:42:58;;;;;;;6.1;12.3;;;;;;;27.8;100;98110;;;;
2022/08/27 15:53:58;;;;;;;6.1;12.3;;;;;;;27.8;100;98110;;;;
2022/08/27 16:03:58;;;;;;;6.6;11.2;;;;;;;27.8;100;98120;;;;
2022/08/27 16:14:59;;;;;;;6.6;11.2;;;;;;;27.2;100;98120;;;;
2022/08/27 16:24:58;;;;;;;6.6;11.2;;;;;;;26.7;100;98120;;;;
2022/08/27 16:34:59;;;;;;;7.4;14.2;;;;;;;26;100;98120;;;;
2022/08/27 16:45:58;;;;;;;7.4;14.2;;;;;;;25.8;100;98130;;;;
2022/08/27 16:55:59;;;;;;;9.3;13.8;;;;;;;25.5;100;98130;;;;
2022/08/27 17:05:58;;;;;;;9.3;13.8;;;;;;;25.4;100;98150;;;;
2022/08/27 17:16:59;;;;;;;9.3;13.8;;;;;;;25.1;100;98150;;;;
2022/08/27 17:26:58;;;;;;;10;13.4;;;;;;;24.8;100;98160;;;;
2022/08/27 17:37:58;;;;;;;10;13.4;;;;;;;24.5;100;98160;;;;
2022/08/27 17:48:58;;;;;;;10;13.4;;;;;;;24.2;100;98160;;;;
2022/08/27 17:59:58;;;;;;;11.7;18.6;;;;;;;24;100;98140;;;;
2022/08/27 18:09:58;;;;;;;11.7;18.6;;;;;;;23.7;100;98160;;;;
2022/08/27 18:20:58;;;;;;;11.7;18.6;;;;;;;23.4;100;98150;;;;
2022/08/27 18:30:58;;;;;;;11.2;14;;;;;;;23.2;100;98170;;;;
2022/08/27 18:40:59;;;;;;;11.2;14;;;;;;;23;100;98200;;;;
2022/08/27 18:51:58;;;;;;;11.2;14;;;;;;;22.9;100;98220;;;;
2022/08/27 19:03:00;;;;;;;15.3;21.1;;;;;;;22.7;100;98250;;;;
2022/08/27 19:13:58;;;;;;;15.3;21.1;;;;;;;22.7;100;98240;;;;
2022/08/27 19:23:58;;;;;;;15.3;21.1;;;;;;;22.3;100;98240;;;;
2022/08/27 19:34:58;;;;;;;14.8;20.6;;;;;;;22;100;98250;;;;
2022/08/27 19:44:58;;;;;;;14.8;20.6;;;;;;;21.7;100;98230;;;;
2022/08/27 19:54:58;;;;;;;14.8;20.6;;;;;;;21.7;100;98250;;;;
2022/08/27 20:05:58;;;;;;;17.6;22.4;;;;;;;21.5;100;98260;;;;
2022/08/27 20:15:58;;;;;;;17.6;22.4;;;;;;;21.5;100;98260;;;;
2022/08/27 20:25:58;;;;;;;12;17;;;;;;;21.1;100;98260;;;;
2022/08/27 20:35:58;;;;;;;12;17;;;;;;;21.1;100;98290;;;;
2022/08/27 20:45:58;;;;;;;12;17;;;;;;;20.5;100;98280;;;;
2022/08/27 20:56:58;;;;;;;6.6;10;;;;;;;20.4;100;98250;;;;
2022/08/27 21:06:58;;;;;;;6.6;10;;;;;;;19.5;100;98200;;;;
2022/08/27 21:17:58;;;;;;;6.6;10;;;;;;;18.9;100;98170;;;;
2022/08/27 21:27:59;;;;;;;4.5;8.5;;;;;;;18.7;100;98150;;;;
2022/08/27 21:38:58;;;;;;;4.5;8.5;;;;;;;19.1;100;98160;;;;
2022/08/27 21:48:58;;;;;;;4.5;8.5;;;;;;;18.8;100;98150;;;;
2022/08/27 21:59:58;;;;;;;3.3;8.9;;;;;;;19;100;98160;;;;
2022/08/27 22:09:58;;;;;;;3.3;8.9;;;;;;;18.9;100;98160;;;;
2022/08/27 22:20:58;;;;;;;3.3;8.9;;;;;;;18.9;100;98150;;;;
2022/08/27 22:30:58;;;;;;;3.6;7.3;;;;;;;19;100;98150;;;;
2022/08/27 22:40:58;;;;;;;3.6;7.3;;;;;;;18.9;100;98150;;;;
2022/08/27 22:51:58;;;;;;;3.6;7.3;;;;;;;19.1;100;98160;;;;
2022/08/27 23:02:00;;;;;;;4.1;8.1;;;;;;;19.3;100;98160;;;;
2022/08/27 23:11:59;;;;;;;4.1;8.1;;;;;;;19.2;100;98170;;;;
2022/08/27 23:21:58;;;;;;;4.1;8.1;;;;;;;19.1;100;98170;;;;
2022/08/27 23:31:59;;;;;;;4.5;8.1;;;;;;;19;100;98170;;;;
2022/08/27 23:42:58;;;;;;;4.5;8.1;;;;;;;18.9;100;98170;;;;
2022/08/27 23:52:59;;;;;;;4.5;8.1;;;;;;;19.1;100;98170;;;;
